sensor_id;sensor_type;location;lat;lon;timestamp;pressure;altitude;pressure_sealevel;temperature;humidity
7335;BME280;3708;42.632;23.378;2023-06-14T00:00:34;94029.91;;;19.47;71.51
7335;BME280;3708;42.632;23.378;2023-06-14T00:03:01;94029.13;;;19.92;69.24
7335;BME280;3708;42.632;23.378;2023-06-14T00:05:29;94025.28;;;20.11;68.67
7335;BME280;3708;42.632;23.378;2023-06-14T00:08:22;94026.09;;;19.72;69.65
7335;BME280;3708;42.632;23.378;2023-06-14T00:10:50;94028.00;;;19.58;69.99
7335;BME280;3708;42.632;23.378;2023-06-14T00:13:17;94028.75;;;19.37;71.81
7335;BME280;3708;42.632;23.378;2023-06-14T00:15:46;94019.25;;;19.68;70.03
7335;BME280;3708;42.632;23.378;2023-06-14T00:18:15;94013.91;;;19.89;69.94
7335;BME280;3708;42.632;23.378;2023-06-14T00:21:12;94015.44;;;20.01;68.36
7335;BME280;3708;42.632;23.378;2023-06-14T00:23:45;94014.25;;;20.33;67.58
7335;BME280;3708;42.632;23.378;2023-06-14T00:26:21;94013.72;;;20.67;67.09
7335;BME280;3708;42.632;23.378;2023-06-14T00:28:48;94009.00;;;20.95;66.43
7335;BME280;3708;42.632;23.378;2023-06-14T00:31:20;94018.03;;;21.19;65.88
7335;BME280;3708;42.632;23.378;2023-06-14T00:33:47;94011.41;;;21.41;65.01
7335;BME280;3708;42.632;23.378;2023-06-14T00:36:14;94000.69;;;21.48;64.59
7335;BME280;3708;42.632;23.378;2023-06-14T00:38:41;94014.69;;;21.59;64.09
7335;BME280;3708;42.632;23.378;2023-06-14T00:41:08;94010.09;;;21.63;63.83
7335;BME280;3708;42.632;23.378;2023-06-14T00:43:35;94013.06;;;21.72;63.34
7335;BME280;3708;42.632;23.378;2023-06-14T00:46:02;94010.34;;;21.79;63.13
7335;BME280;3708;42.632;23.378;2023-06-14T00:48:30;94013.72;;;21.87;62.91
7335;BME280;3708;42.632;23.378;2023-06-14T00:50:58;94002.63;;;21.92;62.51
7335;BME280;3708;42.632;23.378;2023-06-14T00:53:29;94007.91;;;21.95;62.37
7335;BME280;3708;42.632;23.378;2023-06-14T00:55:59;93998.00;;;21.99;62.11
7335;BME280;3708;42.632;23.378;2023-06-14T00:58:27;93997.53;;;22.05;62.03
7335;BME280;3708;42.632;23.378;2023-06-14T01:00:54;93996.41;;;22.06;61.81
7335;BME280;3708;42.632;23.378;2023-06-14T01:03:25;93998.25;;;22.09;61.59
7335;BME280;3708;42.632;23.378;2023-06-14T01:06:00;94003.97;;;22.11;61.43
7335;BME280;3708;42.632;23.378;2023-06-14T01:08:40;94004.38;;;22.09;61.30
7335;BME280;3708;42.632;23.378;2023-06-14T01:11:12;93995.94;;;22.14;61.19
7335;BME280;3708;42.632;23.378;2023-06-14T01:13:44;94000.47;;;22.17;60.91
7335;BME280;3708;42.632;23.378;2023-06-14T01:16:12;93997.78;;;22.17;60.76
7335;BME280;3708;42.632;23.378;2023-06-14T01:18:41;93996.75;;;22.08;60.63
7335;BME280;3708;42.632;23.378;2023-06-14T01:21:23;94005.47;;;22.12;60.76
7335;BME280;3708;42.632;23.378;2023-06-14T01:23:52;93998.19;;;22.16;60.48
7335;BME280;3708;42.632;23.378;2023-06-14T01:26:20;93993.56;;;22.20;60.66
7335;BME280;3708;42.632;23.378;2023-06-14T01:28:47;94005.00;;;22.20;60.83
7335;BME280;3708;42.632;23.378;2023-06-14T01:31:18;94003.06;;;22.24;60.69
7335;BME280;3708;42.632;23.378;2023-06-14T01:33:48;93998.84;;;22.27;60.51
7335;BME280;3708;42.632;23.378;2023-06-14T01:36:16;94000.34;;;22.28;60.48
7335;BME280;3708;42.632;23.378;2023-06-14T01:38:44;93996.13;;;22.30;60.34
7335;BME280;3708;42.632;23.378;2023-06-14T01:41:14;93998.41;;;22.32;60.31
7335;BME280;3708;42.632;23.378;2023-06-14T01:43:42;93995.00;;;22.31;60.15
7335;BME280;3708;42.632;23.378;2023-06-14T01:46:09;94001.44;;;22.34;60.14
7335;BME280;3708;42.632;23.378;2023-06-14T01:48:37;93994.94;;;22.35;60.10
7335;BME280;3708;42.632;23.378;2023-06-14T01:51:04;93998.72;;;22.37;60.23
7335;BME280;3708;42.632;23.378;2023-06-14T01:53:31;93989.59;;;22.38;59.89
7335;BME280;3708;42.632;23.378;2023-06-14T01:55:58;93997.19;;;22.40;59.79
7335;BME280;3708;42.632;23.378;2023-06-14T01:58:28;93985.88;;;22.29;59.97
7335;BME280;3708;42.632;23.378;2023-06-14T02:00:55;94001.88;;;22.29;59.48
7335;BME280;3708;42.632;23.378;2023-06-14T02:03:23;94001.66;;;22.13;59.72
7335;BME280;3708;42.632;23.378;2023-06-14T02:05:50;93995.56;;;22.12;59.88
7335;BME280;3708;42.632;23.378;2023-06-14T02:08:18;94003.53;;;22.16;59.43
7335;BME280;3708;42.632;23.378;2023-06-14T02:10:44;94012.72;;;22.15;58.84
7335;BME280;3708;42.632;23.378;2023-06-14T02:13:12;94014.22;;;22.16;58.77
7335;BME280;3708;42.632;23.378;2023-06-14T02:15:40;94013.44;;;22.15;58.80
7335;BME280;3708;42.632;23.378;2023-06-14T02:18:09;94019.66;;;22.05;58.97
7335;BME280;3708;42.632;23.378;2023-06-14T02:20:36;94015.06;;;22.06;59.34
7335;BME280;3708;42.632;23.378;2023-06-14T02:23:03;94030.78;;;21.45;61.07
7335;BME280;3708;42.632;23.378;2023-06-14T02:25:30;94016.03;;;21.34;61.75
7335;BME280;3708;42.632;23.378;2023-06-14T02:27:57;94029.28;;;21.44;61.23
7335;BME280;3708;42.632;23.378;2023-06-14T02:30:24;94030.81;;;21.42;60.46
7335;BME280;3708;42.632;23.378;2023-06-14T02:32:52;94030.50;;;21.33;60.40
7335;BME280;3708;42.632;23.378;2023-06-14T02:35:19;94030.47;;;21.36;60.90
7335;BME280;3708;42.632;23.378;2023-06-14T02:37:50;94032.38;;;21.39;60.66
7335;BME280;3708;42.632;23.378;2023-06-14T02:40:17;94022.19;;;21.23;61.11
7335;BME280;3708;42.632;23.378;2023-06-14T02:42:44;94031.06;;;20.99;61.49
7335;BME280;3708;42.632;23.378;2023-06-14T02:45:11;94033.75;;;20.96;61.33
7335;BME280;3708;42.632;23.378;2023-06-14T02:47:38;94029.94;;;20.93;61.42
7335;BME280;3708;42.632;23.378;2023-06-14T02:50:08;94028.06;;;20.94;61.35
7335;BME280;3708;42.632;23.378;2023-06-14T02:52:35;94030.06;;;20.69;62.34
7335;BME280;3708;42.632;23.378;2023-06-14T02:55:03;94032.84;;;20.33;64.35
7335;BME280;3708;42.632;23.378;2023-06-14T02:57:31;94026.72;;;20.47;63.57
7335;BME280;3708;42.632;23.378;2023-06-14T02:59:58;94032.34;;;20.67;62.93
7335;BME280;3708;42.632;23.378;2023-06-14T03:02:25;94035.78;;;20.67;62.80
7335;BME280;3708;42.632;23.378;2023-06-14T03:04:52;94038.03;;;20.72;62.85
7335;BME280;3708;42.632;23.378;2023-06-14T03:07:20;94036.47;;;20.85;62.58
7335;BME280;3708;42.632;23.378;2023-06-14T03:09:49;94045.53;;;20.95;62.60
7335;BME280;3708;42.632;23.378;2023-06-14T03:12:16;94041.72;;;20.92;62.36
7335;BME280;3708;42.632;23.378;2023-06-14T03:14:43;94044.38;;;21.03;62.28
7335;BME280;3708;42.632;23.378;2023-06-14T03:17:12;94041.69;;;21.06;62.10
7335;BME280;3708;42.632;23.378;2023-06-14T03:19:39;94042.47;;;21.00;62.16
7335;BME280;3708;42.632;23.378;2023-06-14T03:22:06;94043.88;;;20.21;65.20
7335;BME280;3708;42.632;23.378;2023-06-14T03:24:35;94042.34;;;20.31;65.22
7335;BME280;3708;42.632;23.378;2023-06-14T03:27:03;94040.88;;;19.52;68.22
7335;BME280;3708;42.632;23.378;2023-06-14T03:29:30;94046.97;;;19.46;69.49
7335;BME280;3708;42.632;23.378;2023-06-14T03:31:58;94037.41;;;20.15;67.51
7335;BME280;3708;42.632;23.378;2023-06-14T03:34:25;94043.41;;;20.51;66.26
7335;BME280;3708;42.632;23.378;2023-06-14T03:36:52;94043.41;;;20.62;65.51
7335;BME280;3708;42.632;23.378;2023-06-14T03:39:19;94038.72;;;20.87;65.14
7335;BME280;3708;42.632;23.378;2023-06-14T03:41:48;94047.38;;;21.12;64.71
7335;BME280;3708;42.632;23.378;2023-06-14T03:44:16;94055.22;;;21.33;64.26
7335;BME280;3708;42.632;23.378;2023-06-14T03:46:44;94052.13;;;21.45;63.83
7335;BME280;3708;42.632;23.378;2023-06-14T03:49:11;94051.63;;;21.61;63.27
7335;BME280;3708;42.632;23.378;2023-06-14T03:51:38;94049.88;;;21.37;62.36
7335;BME280;3708;42.632;23.378;2023-06-14T03:54:06;94053.84;;;21.11;62.47
7335;BME280;3708;42.632;23.378;2023-06-14T03:56:33;94051.84;;;20.18;65.83
7335;BME280;3708;42.632;23.378;2023-06-14T03:59:01;94050.72;;;20.08;65.94
7335;BME280;3708;42.632;23.378;2023-06-14T04:01:28;94052.22;;;20.30;65.79
7335;BME280;3708;42.632;23.378;2023-06-14T04:03:56;94054.91;;;20.09;66.22
7335;BME280;3708;42.632;23.378;2023-06-14T04:06:24;94053.78;;;19.54;68.81
7335;BME280;3708;42.632;23.378;2023-06-14T04:08:58;94057.59;;;19.67;68.50
7335;BME280;3708;42.632;23.378;2023-06-14T04:11:29;94061.38;;;19.34;69.53
7335;BME280;3708;42.632;23.378;2023-06-14T04:13:57;94057.97;;;19.48;69.11
7335;BME280;3708;42.632;23.378;2023-06-14T04:16:26;94059.09;;;19.40;69.75
7335;BME280;3708;42.632;23.378;2023-06-14T04:18:54;94053.03;;;19.92;68.33
7335;BME280;3708;42.632;23.378;2023-06-14T04:21:20;94048.09;;;19.91;68.47
7335;BME280;3708;42.632;23.378;2023-06-14T04:23:49;94053.34;;;20.43;66.86
7335;BME280;3708;42.632;23.378;2023-06-14T04:26:18;94056.91;;;20.99;67.22
7335;BME280;3708;42.632;23.378;2023-06-14T04:28:45;94055.66;;;21.24;65.39
7335;BME280;3708;42.632;23.378;2023-06-14T04:34:06;94061.66;;;21.43;63.37
7335;BME280;3708;42.632;23.378;2023-06-14T04:36:33;94066.50;;;21.58;62.70
7335;BME280;3708;42.632;23.378;2023-06-14T04:39:02;94053.53;;;21.60;62.31
7335;BME280;3708;42.632;23.378;2023-06-14T04:41:29;94060.31;;;21.68;61.74
7335;BME280;3708;42.632;23.378;2023-06-14T04:43:57;94065.16;;;21.80;61.33
7335;BME280;3708;42.632;23.378;2023-06-14T04:46:27;94063.13;;;21.98;60.74
7335;BME280;3708;42.632;23.378;2023-06-14T04:48:54;94061.81;;;22.21;60.96
7335;BME280;3708;42.632;23.378;2023-06-14T04:51:22;94067.03;;;21.90;60.69
7335;BME280;3708;42.632;23.378;2023-06-14T04:53:55;94070.22;;;22.16;60.42
7335;BME280;3708;42.632;23.378;2023-06-14T04:56:23;94077.16;;;22.10;60.15
7335;BME280;3708;42.632;23.378;2023-06-14T04:58:51;94075.13;;;22.21;59.92
7335;BME280;3708;42.632;23.378;2023-06-14T05:01:18;94071.25;;;22.29;59.38
7335;BME280;3708;42.632;23.378;2023-06-14T05:03:45;94079.53;;;22.38;59.08
7335;BME280;3708;42.632;23.378;2023-06-14T05:06:14;94071.78;;;22.50;58.96
7335;BME280;3708;42.632;23.378;2023-06-14T05:08:42;94079.72;;;22.20;59.74
7335;BME280;3708;42.632;23.378;2023-06-14T05:11:09;94076.97;;;22.27;59.45
7335;BME280;3708;42.632;23.378;2023-06-14T05:13:36;94084.97;;;21.86;60.87
7335;BME280;3708;42.632;23.378;2023-06-14T05:16:03;94081.09;;;21.94;60.69
7335;BME280;3708;42.632;23.378;2023-06-14T05:18:30;94088.53;;;21.62;61.81
7335;BME280;3708;42.632;23.378;2023-06-14T05:20:56;94084.94;;;21.90;61.33
7335;BME280;3708;42.632;23.378;2023-06-14T05:23:23;94089.53;;;22.30;60.79
7335;BME280;3708;42.632;23.378;2023-06-14T05:25:51;94091.38;;;21.92;61.31
7335;BME280;3708;42.632;23.378;2023-06-14T05:28:20;94097.84;;;21.91;61.84
7335;BME280;3708;42.632;23.378;2023-06-14T05:30:46;94097.97;;;21.74;61.71
7335;BME280;3708;42.632;23.378;2023-06-14T05:33:13;94102.78;;;21.96;61.29
7335;BME280;3708;42.632;23.378;2023-06-14T05:35:40;94105.75;;;22.06;60.42
7335;BME280;3708;42.632;23.378;2023-06-14T05:38:07;94109.19;;;21.48;62.35
7335;BME280;3708;42.632;23.378;2023-06-14T05:40:34;94098.59;;;21.37;63.09
7335;BME280;3708;42.632;23.378;2023-06-14T05:43:02;94108.47;;;21.98;61.63
7335;BME280;3708;42.632;23.378;2023-06-14T05:45:29;94106.44;;;22.13;60.47
7335;BME280;3708;42.632;23.378;2023-06-14T05:47:56;94117.25;;;21.99;61.29
7335;BME280;3708;42.632;23.378;2023-06-14T05:50:22;94110.03;;;21.96;60.83
7335;BME280;3708;42.632;23.378;2023-06-14T05:52:49;94112.72;;;21.89;61.00
7335;BME280;3708;42.632;23.378;2023-06-14T05:55:17;94107.06;;;21.80;61.20
7335;BME280;3708;42.632;23.378;2023-06-14T05:57:43;94111.53;;;22.41;59.71
7335;BME280;3708;42.632;23.378;2023-06-14T06:00:13;94114.78;;;22.63;58.68
7335;BME280;3708;42.632;23.378;2023-06-14T06:02:41;94120.59;;;22.88;58.20
7335;BME280;3708;42.632;23.378;2023-06-14T06:05:08;94115.94;;;22.96;58.01
7335;BME280;3708;42.632;23.378;2023-06-14T06:07:35;94123.16;;;22.99;57.58
7335;BME280;3708;42.632;23.378;2023-06-14T06:10:03;94116.72;;;23.26;57.50
7335;BME280;3708;42.632;23.378;2023-06-14T06:12:30;94127.84;;;23.52;56.84
7335;BME280;3708;42.632;23.378;2023-06-14T06:14:58;94127.03;;;22.94;58.01
7335;BME280;3708;42.632;23.378;2023-06-14T06:17:26;94118.91;;;22.67;58.40
7335;BME280;3708;42.632;23.378;2023-06-14T06:19:53;94126.44;;;23.10;57.52
7335;BME280;3708;42.632;23.378;2023-06-14T06:22:20;94128.25;;;22.86;57.90
7335;BME280;3708;42.632;23.378;2023-06-14T06:24:47;94130.94;;;22.45;57.62
7335;BME280;3708;42.632;23.378;2023-06-14T06:27:14;94129.16;;;22.32;59.21
7335;BME280;3708;42.632;23.378;2023-06-14T06:29:41;94126.09;;;23.08;57.88
7335;BME280;3708;42.632;23.378;2023-06-14T06:32:08;94132.44;;;23.51;56.65
7335;BME280;3708;42.632;23.378;2023-06-14T06:34:37;94135.78;;;23.59;56.03
7335;BME280;3708;42.632;23.378;2023-06-14T06:37:04;94143.03;;;23.58;54.81
7335;BME280;3708;42.632;23.378;2023-06-14T06:39:31;94139.41;;;23.72;54.38
7335;BME280;3708;42.632;23.378;2023-06-14T06:41:58;94146.97;;;23.77;54.66
7335;BME280;3708;42.632;23.378;2023-06-14T06:44:25;94139.16;;;23.63;54.82
7335;BME280;3708;42.632;23.378;2023-06-14T06:46:51;94144.97;;;23.84;54.32
7335;BME280;3708;42.632;23.378;2023-06-14T06:49:18;94147.03;;;24.00;54.15
7335;BME280;3708;42.632;23.378;2023-06-14T06:52:00;94150.75;;;23.79;54.09
7335;BME280;3708;42.632;23.378;2023-06-14T06:54:28;94148.59;;;23.97;53.96
7335;BME280;3708;42.632;23.378;2023-06-14T06:56:55;94150.84;;;23.99;53.64
7335;BME280;3708;42.632;23.378;2023-06-14T06:59:22;94147.28;;;24.09;53.41
7335;BME280;3708;42.632;23.378;2023-06-14T07:01:49;94141.38;;;24.21;53.62
7335;BME280;3708;42.632;23.378;2023-06-14T07:04:15;94149.22;;;24.08;53.75
7335;BME280;3708;42.632;23.378;2023-06-14T07:06:43;94143.38;;;24.13;53.32
7335;BME280;3708;42.632;23.378;2023-06-14T07:09:11;94146.88;;;24.10;53.29
7335;BME280;3708;42.632;23.378;2023-06-14T07:11:39;94143.00;;;24.38;52.92
7335;BME280;3708;42.632;23.378;2023-06-14T07:14:06;94147.19;;;24.62;52.96
7335;BME280;3708;42.632;23.378;2023-06-14T07:16:33;94147.75;;;24.73;52.29
7335;BME280;3708;42.632;23.378;2023-06-14T07:19:01;94150.59;;;24.86;52.13
7335;BME280;3708;42.632;23.378;2023-06-14T07:21:28;94131.31;;;25.14;51.97
7335;BME280;3708;42.632;23.378;2023-06-14T07:23:55;94132.41;;;25.17;52.07
7335;BME280;3708;42.632;23.378;2023-06-14T07:26:23;94129.31;;;24.98;51.54
7335;BME280;3708;42.632;23.378;2023-06-14T07:28:51;94134.94;;;25.04;50.44
7335;BME280;3708;42.632;23.378;2023-06-14T07:31:18;94131.34;;;25.50;49.04
7335;BME280;3708;42.632;23.378;2023-06-14T07:33:45;94136.75;;;25.66;49.58
7335;BME280;3708;42.632;23.378;2023-06-14T07:36:12;94134.81;;;25.66;49.35
7335;BME280;3708;42.632;23.378;2023-06-14T07:38:39;94135.72;;;26.12;48.04
7335;BME280;3708;42.632;23.378;2023-06-14T07:41:06;94133.69;;;25.48;48.13
7335;BME280;3708;42.632;23.378;2023-06-14T07:43:34;94131.44;;;25.46;47.93
7335;BME280;3708;42.632;23.378;2023-06-14T07:46:01;94131.69;;;25.32;48.39
7335;BME280;3708;42.632;23.378;2023-06-14T07:48:28;94135.34;;;25.42;48.70
7335;BME280;3708;42.632;23.378;2023-06-14T07:50:55;94136.38;;;25.48;48.84
7335;BME280;3708;42.632;23.378;2023-06-14T07:53:22;94138.47;;;25.56;48.70
7335;BME280;3708;42.632;23.378;2023-06-14T07:55:49;94140.44;;;25.72;48.79
7335;BME280;3708;42.632;23.378;2023-06-14T07:58:16;94146.34;;;25.99;48.70
7335;BME280;3708;42.632;23.378;2023-06-14T08:00:44;94148.31;;;26.15;48.72
7335;BME280;3708;42.632;23.378;2023-06-14T08:03:11;94147.81;;;25.68;49.21
7335;BME280;3708;42.632;23.378;2023-06-14T08:05:38;94145.16;;;25.84;48.42
7335;BME280;3708;42.632;23.378;2023-06-14T08:08:05;94157.94;;;25.96;48.72
7335;BME280;3708;42.632;23.378;2023-06-14T08:10:32;94161.31;;;26.32;46.97
7335;BME280;3708;42.632;23.378;2023-06-14T08:12:58;94168.88;;;26.21;47.14
7335;BME280;3708;42.632;23.378;2023-06-14T08:15:25;94170.72;;;26.40;46.86
7335;BME280;3708;42.632;23.378;2023-06-14T08:17:53;94167.50;;;26.62;46.86
7335;BME280;3708;42.632;23.378;2023-06-14T08:20:20;94158.69;;;26.29;48.13
7335;BME280;3708;42.632;23.378;2023-06-14T08:22:47;94163.19;;;25.48;48.15
7335;BME280;3708;42.632;23.378;2023-06-14T08:25:14;94159.59;;;25.35;48.79
7335;BME280;3708;42.632;23.378;2023-06-14T08:27:41;94166.34;;;26.14;48.27
7335;BME280;3708;42.632;23.378;2023-06-14T08:30:08;94169.09;;;26.75;46.96
7335;BME280;3708;42.632;23.378;2023-06-14T08:32:35;94172.13;;;26.45;46.19
7335;BME280;3708;42.632;23.378;2023-06-14T08:35:04;94171.00;;;26.91;46.03
7335;BME280;3708;42.632;23.378;2023-06-14T08:37:32;94169.72;;;27.53;45.55
7335;BME280;3708;42.632;23.378;2023-06-14T08:39:59;94162.34;;;27.82;43.21
7335;BME280;3708;42.632;23.378;2023-06-14T08:42:26;94163.94;;;27.79;42.34
7335;BME280;3708;42.632;23.378;2023-06-14T08:44:53;94161.91;;;28.21;41.77
7335;BME280;3708;42.632;23.378;2023-06-14T08:47:20;94163.97;;;28.05;42.22
7335;BME280;3708;42.632;23.378;2023-06-14T08:49:49;94160.88;;;27.52;42.74
7335;BME280;3708;42.632;23.378;2023-06-14T08:52:19;94158.44;;;27.70;43.53
7335;BME280;3708;42.632;23.378;2023-06-14T08:54:48;94157.69;;;27.29;44.16
7335;BME280;3708;42.632;23.378;2023-06-14T08:57:16;94158.56;;;26.97;45.08
7335;BME280;3708;42.632;23.378;2023-06-14T08:59:47;94162.66;;;26.57;44.69
7335;BME280;3708;42.632;23.378;2023-06-14T09:02:18;94165.16;;;26.31;45.94
7335;BME280;3708;42.632;23.378;2023-06-14T09:04:47;94160.13;;;26.50;45.78
7335;BME280;3708;42.632;23.378;2023-06-14T09:07:16;94157.72;;;27.00;45.53
7335;BME280;3708;42.632;23.378;2023-06-14T09:09:44;94153.34;;;27.47;44.39
7335;BME280;3708;42.632;23.378;2023-06-14T09:12:11;94151.53;;;27.69;43.96
7335;BME280;3708;42.632;23.378;2023-06-14T09:14:38;94144.34;;;27.91;43.75
7335;BME280;3708;42.632;23.378;2023-06-14T09:17:07;94143.69;;;27.87;43.88
7335;BME280;3708;42.632;23.378;2023-06-14T09:19:34;94154.59;;;28.09;42.94
7335;BME280;3708;42.632;23.378;2023-06-14T09:22:03;94154.97;;;27.45;43.25
7335;BME280;3708;42.632;23.378;2023-06-14T09:24:30;94147.38;;;28.06;42.54
7335;BME280;3708;42.632;23.378;2023-06-14T09:26:58;94144.53;;;28.35;40.90
7335;BME280;3708;42.632;23.378;2023-06-14T09:29:25;94156.38;;;28.50;40.23
7335;BME280;3708;42.632;23.378;2023-06-14T09:31:53;94144.34;;;28.76;39.70
7335;BME280;3708;42.632;23.378;2023-06-14T09:34:21;94137.78;;;28.99;39.74
7335;BME280;3708;42.632;23.378;2023-06-14T09:36:52;94144.31;;;28.89;41.29
7335;BME280;3708;42.632;23.378;2023-06-14T09:39:19;94148.19;;;28.66;40.56
7335;BME280;3708;42.632;23.378;2023-06-14T09:41:45;94141.78;;;28.94;40.34
7335;BME280;3708;42.632;23.378;2023-06-14T09:44:14;94139.69;;;29.54;40.38
7335;BME280;3708;42.632;23.378;2023-06-14T09:46:42;94138.16;;;29.75;40.01
7335;BME280;3708;42.632;23.378;2023-06-14T09:49:10;94129.00;;;29.51;40.79
7335;BME280;3708;42.632;23.378;2023-06-14T09:51:42;94129.28;;;29.44;40.02
7335;BME280;3708;42.632;23.378;2023-06-14T09:54:15;94127.97;;;29.79;39.41
7335;BME280;3708;42.632;23.378;2023-06-14T09:56:45;94124.00;;;29.92;38.27
7335;BME280;3708;42.632;23.378;2023-06-14T09:59:16;94124.88;;;29.89;38.42
7335;BME280;3708;42.632;23.378;2023-06-14T10:01:46;94124.59;;;29.66;38.38
7335;BME280;3708;42.632;23.378;2023-06-14T10:04:15;94121.56;;;29.64;38.89
7335;BME280;3708;42.632;23.378;2023-06-14T10:06:45;94125.28;;;29.57;38.68
7335;BME280;3708;42.632;23.378;2023-06-14T10:09:12;94119.59;;;29.55;38.99
7335;BME280;3708;42.632;23.378;2023-06-14T10:11:40;94123.75;;;28.35;40.16
7335;BME280;3708;42.632;23.378;2023-06-14T10:14:10;94112.50;;;28.03;41.27
7335;BME280;3708;42.632;23.378;2023-06-14T10:16:46;94115.09;;;28.40;40.67
7335;BME280;3708;42.632;23.378;2023-06-14T10:19:19;94104.69;;;28.98;39.86
7335;BME280;3708;42.632;23.378;2023-06-14T10:21:55;94099.44;;;28.60;40.57
7335;BME280;3708;42.632;23.378;2023-06-14T10:24:29;94101.81;;;28.12;41.67
7335;BME280;3708;42.632;23.378;2023-06-14T10:26:58;94101.34;;;28.94;40.45
7335;BME280;3708;42.632;23.378;2023-06-14T10:29:25;94103.19;;;29.40;39.81
7335;BME280;3708;42.632;23.378;2023-06-14T10:31:57;94110.34;;;29.65;38.61
7335;BME280;3708;42.632;23.378;2023-06-14T10:34:25;94106.00;;;29.68;38.93
7335;BME280;3708;42.632;23.378;2023-06-14T10:37:03;94104.81;;;29.69;39.24
7335;BME280;3708;42.632;23.378;2023-06-14T10:39:31;94102.13;;;29.69;39.88
7335;BME280;3708;42.632;23.378;2023-06-14T10:42:01;94098.22;;;29.70;39.37
7335;BME280;3708;42.632;23.378;2023-06-14T10:44:37;94099.47;;;29.47;38.78
7335;BME280;3708;42.632;23.378;2023-06-14T10:47:08;94101.66;;;29.70;39.34
7335;BME280;3708;42.632;23.378;2023-06-14T10:49:41;94099.09;;;30.46;37.60
7335;BME280;3708;42.632;23.378;2023-06-14T10:52:12;94096.97;;;30.32;37.35
7335;BME280;3708;42.632;23.378;2023-06-14T10:55:01;94080.78;;;29.92;37.96
7335;BME280;3708;42.632;23.378;2023-06-14T10:57:30;94082.25;;;29.84;37.29
7335;BME280;3708;42.632;23.378;2023-06-14T10:59:58;94076.34;;;29.37;38.46
7335;BME280;3708;42.632;23.378;2023-06-14T11:02:48;94084.53;;;29.12;39.72
7335;BME280;3708;42.632;23.378;2023-06-14T11:05:24;94082.56;;;29.56;38.74
7335;BME280;3708;42.632;23.378;2023-06-14T11:08:17;94075.03;;;29.81;38.71
7335;BME280;3708;42.632;23.378;2023-06-14T11:10:47;94073.41;;;30.42;37.98
7335;BME280;3708;42.632;23.378;2023-06-14T11:13:16;94071.31;;;30.64;35.46
7335;BME280;3708;42.632;23.378;2023-06-14T11:15:44;94071.91;;;30.59;36.70
7335;BME280;3708;42.632;23.378;2023-06-14T11:18:13;94070.00;;;29.62;37.97
7335;BME280;3708;42.632;23.378;2023-06-14T11:20:42;94070.09;;;29.80;37.67
7335;BME280;3708;42.632;23.378;2023-06-14T11:23:09;94070.09;;;29.80;38.74
7335;BME280;3708;42.632;23.378;2023-06-14T11:25:35;94065.91;;;29.88;38.20
7335;BME280;3708;42.632;23.378;2023-06-14T11:28:02;94064.09;;;29.76;38.37
7335;BME280;3708;42.632;23.378;2023-06-14T11:30:29;94056.41;;;30.23;37.79
7335;BME280;3708;42.632;23.378;2023-06-14T11:32:57;94052.69;;;30.48;36.83
7335;BME280;3708;42.632;23.378;2023-06-14T11:35:26;94054.03;;;30.88;36.54
7335;BME280;3708;42.632;23.378;2023-06-14T11:37:53;94063.00;;;31.22;36.23
7335;BME280;3708;42.632;23.378;2023-06-14T11:40:23;94053.91;;;31.61;36.06
7335;BME280;3708;42.632;23.378;2023-06-14T11:42:54;94056.00;;;31.90;35.62
7335;BME280;3708;42.632;23.378;2023-06-14T11:45:24;94055.97;;;31.66;35.45
7335;BME280;3708;42.632;23.378;2023-06-14T11:47:54;94047.53;;;31.64;35.22
7335;BME280;3708;42.632;23.378;2023-06-14T11:50:22;94052.38;;;30.46;36.99
7335;BME280;3708;42.632;23.378;2023-06-14T11:52:53;94043.91;;;30.07;37.70
7335;BME280;3708;42.632;23.378;2023-06-14T11:55:21;94042.09;;;30.04;37.53
7335;BME280;3708;42.632;23.378;2023-06-14T11:57:49;94033.16;;;30.89;36.84
7335;BME280;3708;42.632;23.378;2023-06-14T12:00:16;94019.41;;;31.20;37.46
7335;BME280;3708;42.632;23.378;2023-06-14T12:02:55;94010.03;;;31.48;35.41
7335;BME280;3708;42.632;23.378;2023-06-14T12:05:22;94013.59;;;31.54;34.88
7335;BME280;3708;42.632;23.378;2023-06-14T12:07:50;94012.06;;;31.95;35.08
7335;BME280;3708;42.632;23.378;2023-06-14T12:10:20;94013.41;;;31.99;34.46
7335;BME280;3708;42.632;23.378;2023-06-14T12:12:47;94005.66;;;30.81;35.90
7335;BME280;3708;42.632;23.378;2023-06-14T12:15:14;94015.72;;;30.63;36.07
7335;BME280;3708;42.632;23.378;2023-06-14T12:17:42;94021.00;;;30.48;37.05
7335;BME280;3708;42.632;23.378;2023-06-14T12:20:10;94012.72;;;30.25;37.55
7335;BME280;3708;42.632;23.378;2023-06-14T12:22:39;94011.66;;;30.04;37.38
7335;BME280;3708;42.632;23.378;2023-06-14T12:25:06;94011.34;;;30.11;36.75
7335;BME280;3708;42.632;23.378;2023-06-14T12:27:39;94007.13;;;29.92;37.31
7335;BME280;3708;42.632;23.378;2023-06-14T12:30:07;94009.97;;;30.06;37.70
7335;BME280;3708;42.632;23.378;2023-06-14T12:32:34;94009.41;;;30.11;37.48
7335;BME280;3708;42.632;23.378;2023-06-14T12:35:04;94000.53;;;30.11;37.36
7335;BME280;3708;42.632;23.378;2023-06-14T12:37:31;93990.03;;;30.22;37.46
7335;BME280;3708;42.632;23.378;2023-06-14T12:39:58;93995.19;;;30.38;37.10
7335;BME280;3708;42.632;23.378;2023-06-14T12:42:25;93986.63;;;30.40;37.38
7335;BME280;3708;42.632;23.378;2023-06-14T12:44:53;93994.88;;;30.36;37.46
7335;BME280;3708;42.632;23.378;2023-06-14T12:47:20;93990.22;;;30.37;36.40
7335;BME280;3708;42.632;23.378;2023-06-14T12:49:47;93986.91;;;30.51;36.05
7335;BME280;3708;42.632;23.378;2023-06-14T12:52:14;93982.88;;;30.55;35.65
7335;BME280;3708;42.632;23.378;2023-06-14T12:54:41;93984.38;;;30.38;35.81
7335;BME280;3708;42.632;23.378;2023-06-14T12:57:08;93982.28;;;29.66;38.39
7335;BME280;3708;42.632;23.378;2023-06-14T12:59:35;93991.88;;;29.58;39.25
7335;BME280;3708;42.632;23.378;2023-06-14T13:02:13;93993.69;;;29.21;40.39
7335;BME280;3708;42.632;23.378;2023-06-14T13:04:41;93984.19;;;28.64;41.93
7335;BME280;3708;42.632;23.378;2023-06-14T13:07:08;93982.31;;;27.84;43.74
7335;BME280;3708;42.632;23.378;2023-06-14T13:09:36;93986.00;;;27.27;45.22
7335;BME280;3708;42.632;23.378;2023-06-14T13:12:03;93992.88;;;26.90;46.68
7335;BME280;3708;42.632;23.378;2023-06-14T13:14:30;94001.44;;;25.83;49.61
7335;BME280;3708;42.632;23.378;2023-06-14T13:16:57;94012.41;;;25.89;50.06
7335;BME280;3708;42.632;23.378;2023-06-14T13:19:25;94017.03;;;25.56;49.40